sensor_id;sensor_type;location;lat;lon;timestamp;pressure;altitude;pressure_sealevel;temperature;humidity
21781;BME280;52576;53.614;9.894;2023-12-04T00:00:13;101626.69;;;-1.88;93.97
21781;BME280;52576;53.614;9.894;2023-12-04T00:02:17;101622.41;;;-1.90;94.00
21781;BME280;52576;53.614;9.894;2023-12-04T00:04:20;101625.00;;;-1.93;93.82
21781;BME280;52576;53.614;9.894;2023-12-04T00:06:23;101630.97;;;-1.96;93.92
21781;BME280;52576;53.614;9.894;2023-12-04T00:08:26;101628.41;;;-1.97;93.84
21781;BME280;52576;53.614;9.894;2023-12-04T00:10:28;101625.84;;;-2.00;93.84
21781;BME280;52576;53.614;9.894;2023-12-04T00:12:31;101620.72;;;-2.02;93.81
21781;BME280;52576;53.614;9.894;2023-12-04T00:14:36;101625.84;;;-2.02;93.82
21781;BME280;52576;53.614;9.894;2023-12-04T00:16:39;101615.56;;;-2.05;93.92
21781;BME280;52576;53.614;9.894;2023-12-04T00:18:42;101614.72;;;-2.07;93.92
21781;BME280;52576;53.614;9.894;2023-12-04T00:20:45;101607.91;;;-2.10;93.81
21781;BME280;52576;53.614;9.894;2023-12-04T00:22:48;101614.75;;;-2.10;93.91
21781;BME280;52576;53.614;9.894;2023-12-04T00:24:51;101606.19;;;-2.12;93.85
21781;BME280;52576;53.614;9.894;2023-12-04T00:26:55;101605.34;;;-2.16;93.84
21781;BME280;52576;53.614;9.894;2023-12-04T00:28:58;101605.34;;;-2.17;93.79
21781;BME280;52576;53.614;9.894;2023-12-04T00:31:03;101611.31;;;-2.18;93.57
21781;BME280;52576;53.614;9.894;2023-12-04T00:33:05;101607.06;;;-2.21;93.74
21781;BME280;52576;53.614;9.894;2023-12-04T00:35:08;101609.63;;;-2.22;93.55
21781;BME280;52576;53.614;9.894;2023-12-04T00:37:11;101609.63;;;-2.25;93.53
21781;BME280;52576;53.614;9.894;2023-12-04T00:39:15;101604.47;;;-2.25;93.49
21781;BME280;52576;53.614;9.894;2023-12-04T00:41:18;101609.63;;;-2.25;93.61
21781;BME280;52576;53.614;9.894;2023-12-04T00:43:22;101605.34;;;-2.26;93.63
21781;BME280;52576;53.614;9.894;2023-12-04T00:45:25;101607.03;;;-2.27;93.61
21781;BME280;52576;53.614;9.894;2023-12-04T00:47:29;101603.63;;;-2.29;93.52
21781;BME280;52576;53.614;9.894;2023-12-04T00:49:32;101607.03;;;-2.30;93.54
21781;BME280;52576;53.614;9.894;2023-12-04T00:51:38;101604.47;;;-2.31;93.40
21781;BME280;52576;53.614;9.894;2023-12-04T00:53:42;101607.94;;;-2.34;93.49
21781;BME280;52576;53.614;9.894;2023-12-04T00:55:45;101607.94;;;-2.35;93.26
21781;BME280;52576;53.614;9.894;2023-12-04T00:57:48;101606.22;;;-2.36;93.39
21781;BME280;52576;53.614;9.894;2023-12-04T00:59:51;101602.78;;;-2.42;93.27
21781;BME280;52576;53.614;9.894;2023-12-04T01:01:54;101600.22;;;-2.43;93.25
21781;BME280;52576;53.614;9.894;2023-12-04T01:03:59;101594.22;;;-2.45;93.21
21781;BME280;52576;53.614;9.894;2023-12-04T01:06:02;101593.38;;;-2.47;93.18
21781;BME280;52576;53.614;9.894;2023-12-04T01:08:05;101590.81;;;-2.49;93.18
21781;BME280;52576;53.614;9.894;2023-12-04T01:10:08;101593.38;;;-2.50;93.10
21781;BME280;52576;53.614;9.894;2023-12-04T01:12:12;101594.22;;;-2.51;93.02
21781;BME280;52576;53.614;9.894;2023-12-04T01:14:15;101593.38;;;-2.53;92.99
21781;BME280;52576;53.614;9.894;2023-12-04T01:16:18;101577.97;;;-2.55;93.10
21781;BME280;52576;53.614;9.894;2023-12-04T01:18:21;101580.53;;;-2.55;93.05
21781;BME280;52576;53.614;9.894;2023-12-04T01:20:26;101575.41;;;-2.55;92.81
21781;BME280;52576;53.614;9.894;2023-12-04T01:22:29;101577.97;;;-2.56;92.95
21781;BME280;52576;53.614;9.894;2023-12-04T01:24:32;101579.69;;;-2.58;92.83
21781;BME280;52576;53.614;9.894;2023-12-04T01:26:36;101579.72;;;-2.60;92.67
21781;BME280;52576;53.614;9.894;2023-12-04T01:28:38;101575.44;;;-2.62;92.68
21781;BME280;52576;53.614;9.894;2023-12-04T01:30:41;101578.84;;;-2.65;92.75
21781;BME280;52576;53.614;9.894;2023-12-04T01:32:44;101580.56;;;-2.67;92.63
21781;BME280;52576;53.614;9.894;2023-12-04T01:34:47;101568.56;;;-2.68;92.63
21781;BME280;52576;53.614;9.894;2023-12-04T01:36:52;101577.13;;;-2.69;92.58
21781;BME280;52576;53.614;9.894;2023-12-04T01:38:55;101570.28;;;-2.70;92.62
21781;BME280;52576;53.614;9.894;2023-12-04T01:40:58;101567.72;;;-2.71;92.63
21781;BME280;52576;53.614;9.894;2023-12-04T01:43:01;101565.16;;;-2.73;92.47
21781;BME280;52576;53.614;9.894;2023-12-04T01:45:05;101563.44;;;-2.74;92.51
21781;BME280;52576;53.614;9.894;2023-12-04T01:47:07;101560.00;;;-2.76;92.55
21781;BME280;52576;53.614;9.894;2023-12-04T01:49:11;101554.88;;;-2.76;92.47
21781;BME280;52576;53.614;9.894;2023-12-04T01:51:14;101560.88;;;-2.77;92.49
21781;BME280;52576;53.614;9.894;2023-12-04T01:53:19;101554.88;;;-2.76;92.46
21781;BME280;52576;53.614;9.894;2023-12-04T01:55:22;101551.47;;;-2.78;92.40
21781;BME280;52576;53.614;9.894;2023-12-04T01:57:26;101551.47;;;-2.78;92.39
21781;BME280;52576;53.614;9.894;2023-12-04T01:59:28;101549.75;;;-2.79;92.28
21781;BME280;52576;53.614;9.894;2023-12-04T02:01:32;101548.03;;;-2.80;92.31
21781;BME280;52576;53.614;9.894;2023-12-04T02:03:36;101543.75;;;-2.81;92.16
21781;BME280;52576;53.614;9.894;2023-12-04T02:05:39;101538.63;;;-2.84;92.15
21781;BME280;52576;53.614;9.894;2023-12-04T02:07:42;101535.19;;;-2.85;91.92
21781;BME280;52576;53.614;9.894;2023-12-04T02:09:47;101531.78;;;-2.85;91.97
21781;BME280;52576;53.614;9.894;2023-12-04T02:11:50;101537.78;;;-2.86;91.88
21781;BME280;52576;53.614;9.894;2023-12-04T02:13:59;101541.22;;;-2.87;91.78
21781;BME280;52576;53.614;9.894;2023-12-04T02:16:03;101537.78;;;-2.88;91.84
21781;BME280;52576;53.614;9.894;2023-12-04T02:18:09;101538.66;;;-2.89;91.87
21781;BME280;52576;53.614;9.894;2023-12-04T02:20:13;101537.78;;;-2.89;91.72
21781;BME280;52576;53.614;9.894;2023-12-04T02:22:15;101533.50;;;-2.89;91.84
21781;BME280;52576;53.614;9.894;2023-12-04T02:24:22;101525.81;;;-2.90;91.80
21781;BME280;52576;53.614;9.894;2023-12-04T02:26:28;101520.69;;;-2.90;91.69
21781;BME280;52576;53.614;9.894;2023-12-04T02:28:36;101518.97;;;-2.88;91.80
21781;BME280;52576;53.614;9.894;2023-12-04T02:30:41;101520.69;;;-2.87;91.64
21781;BME280;52576;53.614;9.894;2023-12-04T02:32:47;101522.41;;;-2.86;91.61
21781;BME280;52576;53.614;9.894;2023-12-04T02:34:51;101513.81;;;-2.85;91.62
21781;BME280;52576;53.614;9.894;2023-12-04T02:36:57;101508.69;;;-2.85;91.77
21781;BME280;52576;53.614;9.894;2023-12-04T02:39:02;101500.13;;;-2.84;91.48
21781;BME280;52576;53.614;9.894;2023-12-04T02:41:06;101505.28;;;-2.84;91.40
21781;BME280;52576;53.614;9.894;2023-12-04T02:43:09;101492.44;;;-2.83;91.45
21781;BME280;52576;53.614;9.894;2023-12-04T02:45:12;101495.88;;;-2.82;91.20
21781;BME280;52576;53.614;9.894;2023-12-04T02:47:15;101493.31;;;-2.84;91.11
21781;BME280;52576;53.614;9.894;2023-12-04T02:49:18;101483.91;;;-2.85;91.00
21781;BME280;52576;53.614;9.894;2023-12-04T02:51:21;101484.75;;;-2.84;91.17
21781;BME280;52576;53.614;9.894;2023-12-04T02:53:24;101479.63;;;-2.84;91.08
21781;BME280;52576;53.614;9.894;2023-12-04T02:55:27;101486.47;;;-2.83;91.02
21781;BME280;52576;53.614;9.894;2023-12-04T02:57:32;101481.31;;;-2.83;90.99
21781;BME280;52576;53.614;9.894;2023-12-04T02:59:34;101477.06;;;-2.84;90.96
21781;BME280;52576;53.614;9.894;2023-12-04T03:01:37;101467.66;;;-2.85;90.81
21781;BME280;52576;53.614;9.894;2023-12-04T03:03:39;101465.13;;;-2.88;90.61
21781;BME280;52576;53.614;9.894;2023-12-04T03:05:42;101458.28;;;-2.89;90.80
21781;BME280;52576;53.614;9.894;2023-12-04T03:07:46;101452.28;;;-2.91;90.67
21781;BME280;52576;53.614;9.894;2023-12-04T03:09:49;101457.41;;;-2.91;90.57
21781;BME280;52576;53.614;9.894;2023-12-04T03:11:52;101455.72;;;-2.92;90.75
21781;BME280;52576;53.614;9.894;2023-12-04T03:13:57;101450.56;;;-2.92;90.95
21781;BME280;52576;53.614;9.894;2023-12-04T03:16:00;101451.44;;;-2.92;90.82
21781;BME280;52576;53.614;9.894;2023-12-04T03:18:03;101446.31;;;-2.92;90.92
21781;BME280;52576;53.614;9.894;2023-12-04T03:20:09;101454.00;;;-2.90;91.00
21781;BME280;52576;53.614;9.894;2023-12-04T03:22:13;101444.59;;;-2.90;90.98
21781;BME280;52576;53.614;9.894;2023-12-04T03:24:16;101437.75;;;-2.89;90.78
21781;BME280;52576;53.614;9.894;2023-12-04T03:26:19;101433.47;;;-2.90;90.89
21781;BME280;52576;53.614;9.894;2023-12-04T03:28:21;101436.91;;;-2.91;90.74
21781;BME280;52576;53.614;9.894;2023-12-04T03:30:26;101430.06;;;-2.92;90.80
21781;BME280;52576;53.614;9.894;2023-12-04T03:32:29;101431.78;;;-2.94;90.72
21781;BME280;52576;53.614;9.894;2023-12-04T03:34:32;101429.19;;;-2.96;90.87
21781;BME280;52576;53.614;9.894;2023-12-04T03:36:35;101433.47;;;-2.96;90.92
21781;BME280;52576;53.614;9.894;2023-12-04T03:38:38;101431.75;;;-2.97;90.80
21781;BME280;52576;53.614;9.894;2023-12-04T03:40:41;101424.94;;;-2.98;90.92
21781;BME280;52576;53.614;9.894;2023-12-04T03:42:44;101418.94;;;-3.00;90.88
21781;BME280;52576;53.614;9.894;2023-12-04T03:44:48;101418.94;;;-3.02;90.92
21781;BME280;52576;53.614;9.894;2023-12-04T03:46:51;101409.53;;;-3.01;90.85
21781;BME280;52576;53.614;9.894;2023-12-04T03:48:55;101408.69;;;-3.03;90.90
21781;BME280;52576;53.614;9.894;2023-12-04T03:50:58;101402.69;;;-3.05;91.00
21781;BME280;52576;53.614;9.894;2023-12-04T03:53:02;101401.84;;;-3.06;91.04
21781;BME280;52576;53.614;9.894;2023-12-04T03:55:06;101390.72;;;-3.07;90.94
21781;BME280;52576;53.614;9.894;2023-12-04T03:57:09;101390.72;;;-3.08;90.93
21781;BME280;52576;53.614;9.894;2023-12-04T03:59:11;101377.91;;;-3.10;91.04
21781;BME280;52576;53.614;9.894;2023-12-04T04:01:14;101382.19;;;-3.09;91.01
21781;BME280;52576;53.614;9.894;2023-12-04T04:03:18;101371.06;;;-3.09;91.15
21781;BME280;52576;53.614;9.894;2023-12-04T04:05:21;101377.06;;;-3.09;91.17
21781;BME280;52576;53.614;9.894;2023-12-04T04:07:23;101368.50;;;-3.08;91.12
21781;BME280;52576;53.614;9.894;2023-12-04T04:09:26;101363.38;;;-3.08;91.12
21781;BME280;52576;53.614;9.894;2023-12-04T04:11:28;101365.09;;;-3.07;91.07
21781;BME280;52576;53.614;9.894;2023-12-04T04:13:32;101359.09;;;-3.07;90.99
21781;BME280;52576;53.614;9.894;2023-12-04T04:15:35;101365.94;;;-3.04;91.09
21781;BME280;52576;53.614;9.894;2023-12-04T04:17:38;101364.25;;;-3.04;90.99
21781;BME280;52576;53.614;9.894;2023-12-04T04:19:42;101359.97;;;-3.00;90.96
21781;BME280;52576;53.614;9.894;2023-12-04T04:21:45;101351.41;;;-2.99;90.95
21781;BME280;52576;53.614;9.894;2023-12-04T04:23:49;101355.69;;;-2.98;90.80
21781;BME280;52576;53.614;9.894;2023-12-04T04:25:52;101348.00;;;-2.95;90.88
21781;BME280;52576;53.614;9.894;2023-12-04T04:27:55;101346.28;;;-2.93;90.67
21781;BME280;52576;53.614;9.894;2023-12-04T04:29:58;101351.41;;;-2.90;90.58
21781;BME280;52576;53.614;9.894;2023-12-04T04:32:01;101341.13;;;-2.87;90.64
21781;BME280;52576;53.614;9.894;2023-12-04T04:34:04;101346.22;;;-2.81;90.73
21781;BME280;52576;53.614;9.894;2023-12-04T04:36:10;101339.38;;;-2.76;90.75
21781;BME280;52576;53.614;9.894;2023-12-04T04:38:13;101344.50;;;-2.68;90.73
21781;BME280;52576;53.614;9.894;2023-12-04T04:40:16;101345.31;;;-2.62;90.51
21781;BME280;52576;53.614;9.894;2023-12-04T04:42:19;101344.41;;;-2.55;90.85
21781;BME280;52576;53.614;9.894;2023-12-04T04:44:22;101341.84;;;-2.47;90.51
21781;BME280;52576;53.614;9.894;2023-12-04T04:46:28;101339.25;;;-2.40;90.46
21781;BME280;52576;53.614;9.894;2023-12-04T04:48:30;101340.88;;;-2.32;90.30
21781;BME280;52576;53.614;9.894;2023-12-04T04:50:34;101336.59;;;-2.27;90.14
21781;BME280;52576;53.614;9.894;2023-12-04T04:52:38;101337.44;;;-2.22;89.93
21781;BME280;52576;53.614;9.894;2023-12-04T04:54:41;101335.69;;;-2.17;89.84
21781;BME280;52576;53.614;9.894;2023-12-04T04:56:44;101325.41;;;-2.14;89.72
21781;BME280;52576;53.614;9.894;2023-12-04T04:58:47;101321.97;;;-2.10;89.47
21781;BME280;52576;53.614;9.894;2023-12-04T05:00:54;101326.19;;;-2.06;89.27
21781;BME280;52576;53.614;9.894;2023-12-04T05:02:57;101327.03;;;-2.04;89.20
21781;BME280;52576;53.614;9.894;2023-12-04T05:05:02;101315.03;;;-2.02;89.14
21781;BME280;52576;53.614;9.894;2023-12-04T05:07:06;101315.91;;;-2.01;88.79
21781;BME280;52576;53.614;9.894;2023-12-04T05:09:11;101314.16;;;-1.99;88.98
21781;BME280;52576;53.614;9.894;2023-12-04T05:11:14;101303.03;;;-1.97;89.06
21781;BME280;52576;53.614;9.894;2023-12-04T05:13:17;101302.16;;;-1.93;89.00
21781;BME280;52576;53.614;9.894;2023-12-04T05:15:20;101307.25;;;-1.88;88.87
21781;BME280;52576;53.614;9.894;2023-12-04T05:17:22;101305.53;;;-1.86;88.71
21781;BME280;52576;53.614;9.894;2023-12-04T05:19:26;101305.53;;;-1.85;88.70
21781;BME280;52576;53.614;9.894;2023-12-04T05:21:29;101301.22;;;-1.83;88.58
21781;BME280;52576;53.614;9.894;2023-12-04T05:23:32;101292.63;;;-1.82;88.51
21781;BME280;52576;53.614;9.894;2023-12-04T05:25:35;101296.91;;;-1.81;88.40
21781;BME280;52576;53.614;9.894;2023-12-04T05:27:49;101290.03;;;-1.80;88.43
21781;BME280;52576;53.614;9.894;2023-12-04T05:29:52;101287.47;;;-1.79;88.32
21781;BME280;52576;53.614;9.894;2023-12-04T05:31:55;101287.44;;;-1.77;88.17
21781;BME280;52576;53.614;9.894;2023-12-04T05:33:59;101285.72;;;-1.77;88.17
21781;BME280;52576;53.614;9.894;2023-12-04T05:36:02;101278.88;;;-1.78;87.99
21781;BME280;52576;53.614;9.894;2023-12-04T05:38:05;101288.31;;;-1.77;88.12
21781;BME280;52576;53.614;9.894;2023-12-04T05:40:10;101277.16;;;-1.76;87.94
21781;BME280;52576;53.614;9.894;2023-12-04T05:42:15;101281.44;;;-1.75;87.95
21781;BME280;52576;53.614;9.894;2023-12-04T05:44:18;101277.13;;;-1.73;87.85
21781;BME280;52576;53.614;9.894;2023-12-04T05:46:22;101282.28;;;-1.73;88.01
21781;BME280;52576;53.614;9.894;2023-12-04T05:48:25;101280.56;;;-1.71;88.05
21781;BME280;52576;53.614;9.894;2023-12-04T05:50:28;101272.84;;;-1.71;88.00
21781;BME280;52576;53.614;9.894;2023-12-04T05:52:31;101272.84;;;-1.71;87.87
21781;BME280;52576;53.614;9.894;2023-12-04T05:54:34;101277.13;;;-1.73;87.82
21781;BME280;52576;53.614;9.894;2023-12-04T05:56:38;101273.72;;;-1.75;87.74
21781;BME280;52576;53.614;9.894;2023-12-04T05:58:42;101272.88;;;-1.74;87.82
21781;BME280;52576;53.614;9.894;2023-12-04T06:00:45;101268.59;;;-1.75;87.79
21781;BME280;52576;53.614;9.894;2023-12-04T06:02:48;101266.03;;;-1.75;88.00
21781;BME280;52576;53.614;9.894;2023-12-04T06:04:51;101264.31;;;-1.74;88.01
21781;BME280;52576;53.614;9.894;2023-12-04T06:06:53;101264.31;;;-1.74;87.90
21781;BME280;52576;53.614;9.894;2023-12-04T06:08:57;101256.59;;;-1.76;88.04
21781;BME280;52576;53.614;9.894;2023-12-04T06:11:00;101258.31;;;-1.76;88.13
21781;BME280;52576;53.614;9.894;2023-12-04T06:13:03;101249.75;;;-1.77;88.27
21781;BME280;52576;53.614;9.894;2023-12-04T06:15:08;101243.75;;;-1.76;88.44
21781;BME280;52576;53.614;9.894;2023-12-04T06:17:11;101248.91;;;-1.76;88.31
21781;BME280;52576;53.614;9.894;2023-12-04T06:19:14;101240.34;;;-1.76;88.31
21781;BME280;52576;53.614;9.894;2023-12-04T06:21:17;101248.91;;;-1.76;88.44
21781;BME280;52576;53.614;9.894;2023-12-04T06:23:20;101241.19;;;-1.76;88.53
21781;BME280;52576;53.614;9.894;2023-12-04T06:25:24;101246.31;;;-1.76;88.54
21781;BME280;52576;53.614;9.894;2023-12-04T06:27:28;101238.63;;;-1.76;88.66
21781;BME280;52576;53.614;9.894;2023-12-04T06:29:32;101241.19;;;-1.76;88.81
21781;BME280;52576;53.614;9.894;2023-12-04T06:31:37;101236.03;;;-1.76;88.95
21781;BME280;52576;53.614;9.894;2023-12-04T06:33:40;101242.06;;;-1.77;89.03
21781;BME280;52576;53.614;9.894;2023-12-04T06:35:45;101245.47;;;-1.76;89.28
21781;BME280;52576;53.614;9.894;2023-12-04T06:37:49;101239.47;;;-1.77;89.38
21781;BME280;52576;53.614;9.894;2023-12-04T06:39:55;101245.47;;;-1.78;89.28
21781;BME280;52576;53.614;9.894;2023-12-04T06:42:01;101249.78;;;-1.80;89.43
21781;BME280;52576;53.614;9.894;2023-12-04T06:44:04;101244.69;;;-1.83;89.70
21781;BME280;52576;53.614;9.894;2023-12-04T06:46:09;101248.97;;;-1.83;89.66
21781;BME280;52576;53.614;9.894;2023-12-04T06:48:13;101249.84;;;-1.83;89.71
21781;BME280;52576;53.614;9.894;2023-12-04T06:50:18;101242.97;;;-1.82;89.84
21781;BME280;52576;53.614;9.894;2023-12-04T06:52:21;101239.56;;;-1.83;90.07
21781;BME280;52576;53.614;9.894;2023-12-04T06:54:23;101238.72;;;-1.83;89.93
21781;BME280;52576;53.614;9.894;2023-12-04T06:56:26;101245.56;;;-1.85;89.93
21781;BME280;52576;53.614;9.894;2023-12-04T06:58:29;101248.16;;;-1.87;90.10
21781;BME280;52576;53.614;9.894;2023-12-04T07:00:32;101247.31;;;-1.89;90.20
21781;BME280;52576;53.614;9.894;2023-12-04T07:02:35;101249.03;;;-1.91;90.14
21781;BME280;52576;53.614;9.894;2023-12-04T07:04:40;101249.03;;;-1.91;90.32
21781;BME280;52576;53.614;9.894;2023-12-04T07:06:43;101243.91;;;-1.92;90.31
21781;BME280;52576;53.614;9.894;2023-12-04T07:08:46;101244.78;;;-1.95;90.40
21781;BME280;52576;53.614;9.894;2023-12-04T07:10:49;101239.66;;;-1.95;90.44
21781;BME280;52576;53.614;9.894;2023-12-04T07:12:52;101243.94;;;-1.95;90.79
21781;BME280;52576;53.614;9.894;2023-12-04T07:14:56;101241.38;;;-1.95;90.63
21781;BME280;52576;53.614;9.894;2023-12-04T07:16:59;101241.38;;;-1.97;90.74
21781;BME280;52576;53.614;9.894;2023-12-04T07:19:02;101234.53;;;-1.98;90.93
21781;BME280;52576;53.614;9.894;2023-12-04T07:21:07;101237.09;;;-1.98;90.93
21781;BME280;52576;53.614;9.894;2023-12-04T07:23:11;101229.41;;;-1.98;90.97
21781;BME280;52576;53.614;9.894;2023-12-04T07:25:14;101236.25;;;-1.97;91.12
21781;BME280;52576;53.614;9.894;2023-12-04T07:27:18;101226.81;;;-1.98;91.20
21781;BME280;52576;53.614;9.894;2023-12-04T07:29:21;101231.97;;;-1.98;91.17
21781;BME280;52576;53.614;9.894;2023-12-04T07:31:25;101236.25;;;-1.97;91.20
21781;BME280;52576;53.614;9.894;2023-12-04T07:33:28;101230.25;;;-1.96;91.43
21781;BME280;52576;53.614;9.894;2023-12-04T07:35:31;101234.50;;;-1.95;91.46
21781;BME280;52576;53.614;9.894;2023-12-04T07:37:37;101227.66;;;-1.93;91.41
21781;BME280;52576;53.614;9.894;2023-12-04T07:39:40;101225.91;;;-1.91;91.55
21781;BME280;52576;53.614;9.894;2023-12-04T07:41:45;101221.66;;;-1.92;91.50
21781;BME280;52576;53.614;9.894;2023-12-04T07:43:48;101213.91;;;-1.89;91.54
21781;BME280;52576;53.614;9.894;2023-12-04T07:45:51;101219.91;;;-1.90;91.66
21781;BME280;52576;53.614;9.894;2023-12-04T07:47:54;101222.47;;;-1.90;91.53
21781;BME280;52576;53.614;9.894;2023-12-04T07:49:57;101225.91;;;-1.89;91.79
21781;BME280;52576;53.614;9.894;2023-12-04T07:52:02;101219.91;;;-1.88;91.89
21781;BME280;52576;53.614;9.894;2023-12-04T07:54:07;101223.31;;;-1.86;91.86
21781;BME280;52576;53.614;9.894;2023-12-04T07:56:11;101225.03;;;-1.85;91.94
21781;BME280;52576;53.614;9.894;2023-12-04T07:58:14;101222.44;;;-1.84;91.99
21781;BME280;52576;53.614;9.894;2023-12-04T08:00:18;101225.81;;;-1.80;92.01
21781;BME280;52576;53.614;9.894;2023-12-04T08:02:24;101229.22;;;-1.78;92.15
21781;BME280;52576;53.614;9.894;2023-12-04T08:04:27;101219.78;;;-1.76;92.24
21781;BME280;52576;53.614;9.894;2023-12-04T08:06:29;101218.03;;;-1.73;92.24
21781;BME280;52576;53.614;9.894;2023-12-04T08:08:33;101222.28;;;-1.68;92.39
21781;BME280;52576;53.614;9.894;2023-12-04T08:10:37;101216.28;;;-1.66;92.41
21781;BME280;52576;53.614;9.894;2023-12-04T08:12:40;101206.81;;;-1.62;92.45
21781;BME280;52576;53.614;9.894;2023-12-04T08:14:46;101210.22;;;-1.60;92.47
21781;BME280;52576;53.614;9.894;2023-12-04T08:16:49;101207.59;;;-1.56;92.46
21781;BME280;52576;53.614;9.894;2023-12-04T08:18:53;101201.56;;;-1.53;92.31
21781;BME280;52576;53.614;9.894;2023-12-04T08:20:56;101201.53;;;-1.50;92.24
21781;BME280;52576;53.614;9.894;2023-12-04T08:23:01;101204.09;;;-1.49;92.30
21781;BME280;52576;53.614;9.894;2023-12-04T08:25:06;101200.63;;;-1.46;92.27
21781;BME280;52576;53.614;9.894;2023-12-04T08:27:11;101192.91;;;-1.43;92.19
21781;BME280;52576;53.614;9.894;2023-12-04T08:29:14;101194.59;;;-1.42;92.20
21781;BME280;52576;53.614;9.894;2023-12-04T08:31:16;101192.88;;;-1.40;92.24
21781;BME280;52576;53.614;9.894;2023-12-04T08:33:19;101193.69;;;-1.38;92.09
21781;BME280;52576;53.614;9.894;2023-12-04T08:35:23;101196.25;;;-1.35;92.13
21781;BME280;52576;53.614;9.894;2023-12-04T08:37:26;101203.09;;;-1.34;92.03
21781;BME280;52576;53.614;9.894;2023-12-04T08:39:29;101192.78;;;-1.31;92.09
21781;BME280;52576;53.614;9.894;2023-12-04T08:41:32;101195.28;;;-1.29;92.03
21781;BME280;52576;53.614;9.894;2023-12-04T08:43:37;101197.84;;;-1.28;92.08
21781;BME280;52576;53.614;9.894;2023-12-04T08:45:40;101199.56;;;-1.27;92.08
21781;BME280;52576;53.614;9.894;2023-12-04T08:47:44;101190.97;;;-1.26;91.94
21781;BME280;52576;53.614;9.894;2023-12-04T08:49:48;101196.97;;;-1.25;91.98
21781;BME280;52576;53.614;9.894;2023-12-04T08:51:51;101194.38;;;-1.24;92.04
21781;BME280;52576;53.614;9.894;2023-12-04T08:53:55;101193.50;;;-1.21;92.18
21781;BME280;52576;53.614;9.894;2023-12-04T08:55:58;101190.91;;;-1.20;92.15
21781;BME280;52576;53.614;9.894;2023-12-04T08:58:01;101191.75;;;-1.18;92.04
21781;BME280;52576;53.614;9.894;2023-12-04T09:00:07;101192.56;;;-1.16;92.04
21781;BME280;52576;53.614;9.894;2023-12-04T09:02:11;101188.31;;;-1.17;91.93
21781;BME280;52576;53.614;9.894;2023-12-04T09:04:16;101190.00;;;-1.16;92.06
21781;BME280;52576;53.614;9.894;2023-12-04T09:06:19;101190.88;;;-1.17;91.94
21781;BME280;52576;53.614;9.894;2023-12-04T09:08:43;101195.16;;;-1.17;91.89
21781;BME280;52576;53.614;9.894;2023-12-04T09:11:01;101189.16;;;-1.18;91.99
21781;BME280;52576;53.614;9.894;2023-12-04T09:13:23;101186.63;;;-1.19;91.92
21781;BME280;52576;53.614;9.894;2023-12-04T09:15:27;101190.91;;;-1.20;91.83
21781;BME280;52576;53.614;9.894;2023-12-04T09:17:30;101190.91;;;-1.20;91.83
21781;BME280;52576;53.614;9.894;2023-12-04T09:19:40;101187.47;;;-1.19;91.85
21781;BME280;52576;53.614;9.894;2023-12-04T09:21:44;101189.16;;;-1.18;92.05
21781;BME280;52576;53.614;9.894;2023-12-04T09:23:48;101193.47;;;-1.18;91.69
21781;BME280;52576;53.614;9.894;2023-12-04T09:25:52;101184.91;;;-1.19;91.99
21781;BME280;52576;53.614;9.894;2023-12-04T09:27:55;101185.75;;;-1.18;91.85
21781;BME280;52576;53.614;9.894;2023-12-04T09:29:58;101186.59;;;-1.16;91.89
21781;BME280;52576;53.614;9.894;2023-12-04T09:32:03;101189.13;;;-1.15;91.78
21781;BME280;52576;53.614;9.894;2023-12-04T09:34:06;101182.25;;;-1.13;92.14
21781;BME280;52576;53.614;9.894;2023-12-04T09:36:10;101182.22;;;-1.10;92.06
21781;BME280;52576;53.614;9.894;2023-12-04T09:38:13;101176.16;;;-1.06;92.16
21781;BME280;52576;53.614;9.894;2023-12-04T09:40:16;101182.94;;;-1.02;92.23
21781;BME280;52576;53.614;9.894;2023-12-04T09:42:19;101185.50;;;-0.98;92.20
21781;BME280;52576;53.614;9.894;2023-12-04T09:44:22;101183.72;;;-0.95;91.93
21781;BME280;52576;53.614;9.894;2023-12-04T09:46:27;101184.56;;;-0.91;92.12
21781;BME280;52576;53.614;9.894;2023-12-04T09:48:32;101189.63;;;-0.87;91.99
21781;BME280;52576;53.614;9.894;2023-12-04T09:50:36;101183.59;;;-0.83;91.88
21781;BME280;52576;53.614;9.894;2023-12-04T09:52:41;101176.69;;;-0.79;91.77
21781;BME280;52576;53.614;9.894;2023-12-04T09:54:44;101173.25;;;-0.78;91.34
21781;BME280;52576;53.614;9.894;2023-12-04T09:56:46;101180.91;;;-0.77;91.66
21781;BME280;52576;53.614;9.894;2023-12-04T09:58:52;101168.00;;;-0.75;91.50
21781;BME280;52576;53.614;9.894;2023-12-04T10:00:58;101166.28;;;-0.73;91.40
21781;BME280;52576;53.614;9.894;2023-12-04T10:03:02;101165.38;;;-0.69;91.27
21781;BME280;52576;53.614;9.894;2023-12-04T10:05:07;101162.72;;;-0.63;91.40
21781;BME280;52576;53.614;9.894;2023-12-04T10:07:11;101155.75;;;-0.56;91.61
21781;BME280;52576;53.614;9.894;2023-12-04T10:09:16;101153.91;;;-0.50;91.19
21781;BME280;52576;53.614;9.894;2023-12-04T10:11:19;101152.06;;;-0.42;91.04
21781;BME280;52576;53.614;9.894;2023-12-04T10:13:23;101149.38;;;-0.34;90.82
21781;BME280;52576;53.614;9.894;2023-12-04T10:15:46;101142.41;;;-0.27;90.76
21781;BME280;52576;53.614;9.894;2023-12-04T10:17:50;101141.41;;;-0.20;90.43
21781;BME280;52576;53.614;9.894;2023-12-04T10:20:04;101143.03;;;-0.13;90.28
21781;BME280;52576;53.614;9.894;2023-12-04T10:22:10;101132.63;;;-0.07;90.00
21781;BME280;52576;53.614;9.894;2023-12-04T10:24:31;101130.88;;;-0.05;89.50
21781;BME280;52576;53.614;9.894;2023-12-04T10:26:35;101129.16;;;-0.05;89.36
21781;BME280;52576;53.614;9.894;2023-12-04T10:28:37;101123.13;;;-0.05;89.07
21781;BME280;52576;53.614;9.894;2023-12-04T10:30:41;101126.53;;;-0.03;88.71
21781;BME280;52576;53.614;9.894;2023-12-04T10:32:44;101122.22;;;-0.01;88.41
21781;BME280;52576;53.614;9.894;2023-12-04T10:34:47;101126.50;;;0.00;88.18
21781;BME280;52576;53.614;9.894;2023-12-04T10:36:49;101123.00;;;0.01;88.00
21781;BME280;52576;53.614;9.894;2023-12-04T10:38:59;101123.84;;;0.03;87.85
21781;BME280;52576;53.614;9.894;2023-12-04T10:41:11;101123.84;;;0.03;87.59
21781;BME280;52576;53.614;9.894;2023-12-04T10:43:16;101110.94;;;0.03;87.48
21781;BME280;52576;53.614;9.894;2023-12-04T10:45:19;101121.25;;;0.03;87.13
21781;BME280;52576;53.614;9.894;2023-12-04T10:47:25;101117.81;;;0.04;87.52